createdAt,value
2022-09-07T00:00:40.671Z,1.50
2022-09-07T00:03:05.778Z,1.48
2022-09-07T00:05:30.202Z,1.60
2022-09-07T00:07:53.741Z,1.80
2022-09-07T00:10:17.745Z,2.00
2022-09-07T00:12:41.462Z,1.75
2022-09-07T00:15:08.352Z,1.77
2022-09-07T00:17:33.288Z,1.70
2022-09-07T00:19:56.994Z,2.20
2022-09-07T00:22:20.540Z,2.13
2022-09-07T00:24:44.127Z,2.30
2022-09-07T00:27:07.866Z,2.30
2022-09-07T00:29:31.461Z,2.38
2022-09-07T00:31:55.437Z,2.15
2022-09-07T00:34:21.538Z,2.33
2022-09-07T00:36:45.121Z,1.88
2022-09-07T00:39:08.755Z,2.00
2022-09-07T00:41:32.508Z,2.08
2022-09-07T00:43:58.682Z,1.77
2022-09-07T00:46:24.840Z,2.10
2022-09-07T00:48:54.559Z,1.83
2022-09-07T00:51:27.575Z,2.10
2022-09-07T00:53:55.537Z,2.38
2022-09-07T00:56:19.160Z,2.28
2022-09-07T00:58:45.142Z,2.40
2022-09-07T01:01:10.269Z,2.25
2022-09-07T01:03:39.808Z,2.40
2022-09-07T01:06:10.143Z,2.35
2022-09-07T01:08:37.106Z,2.20
2022-09-07T01:11:02.245Z,2.40
2022-09-07T01:13:27.378Z,2.50
2022-09-07T01:16:01.757Z,2.35
2022-09-07T01:18:34.301Z,1.88
2022-09-07T01:21:25.060Z,2.28
2022-09-07T01:24:32.670Z,1.90
2022-09-07T01:27:38.764Z,1.70
2022-09-07T01:30:07.115Z,1.67
2022-09-07T01:33:04.623Z,2.25
2022-09-07T01:35:40.998Z,2.08
2022-09-07T01:38:13.663Z,2.00
2022-09-07T01:40:46.757Z,2.10
2022-09-07T01:43:20.478Z,2.00
2022-09-07T01:45:46.885Z,2.10
2022-09-07T01:48:16.045Z,2.20
2022-09-07T01:50:45.960Z,2.55
2022-09-07T01:53:16.363Z,2.67
2022-09-07T01:55:45.797Z,2.47
2022-09-07T01:58:16.380Z,2.28
2022-09-07T02:00:46.462Z,2.38
2022-09-07T02:03:16.209Z,2.38
2022-09-07T02:05:49.579Z,2.60
2022-09-07T02:08:17.917Z,2.40
2022-09-07T02:10:46.331Z,2.67
2022-09-07T02:13:17.119Z,3.33
2022-09-07T02:15:47.003Z,3.28
2022-09-07T02:18:14.276Z,3.55
2022-09-07T02:20:40.809Z,3.15
2022-09-07T02:23:09.812Z,2.60
2022-09-07T02:25:38.926Z,2.65
2022-09-07T02:28:09.512Z,2.50
2022-09-07T02:30:34.998Z,2.60
2022-09-07T02:32:58.653Z,2.63
2022-09-07T02:35:22.351Z,2.65
2022-09-07T02:37:46.447Z,2.75
2022-09-07T02:40:11.869Z,2.60
2022-09-07T02:42:36.770Z,3.22
2022-09-07T02:45:01.220Z,3.13
2022-09-07T02:47:37.821Z,4.20
2022-09-07T02:50:46.673Z,6.40
2022-09-07T02:53:31.162Z,6.97
2022-09-07T02:56:10.918Z,6.88
2022-09-07T02:58:45.047Z,6.32
2022-09-07T03:01:19.123Z,5.78
2022-09-07T03:03:55.709Z,4.65
2022-09-07T03:06:26.894Z,4.20
2022-09-07T03:08:54.998Z,4.32
2022-09-07T03:11:19.106Z,4.57
2022-09-07T03:13:42.712Z,3.90
2022-09-07T03:16:06.911Z,4.65
2022-09-07T03:18:30.751Z,6.22
2022-09-07T03:20:56.781Z,6.70
2022-09-07T03:23:20.877Z,8.52
2022-09-07T03:25:44.489Z,7.78
2022-09-07T03:28:08.525Z,8.50
2022-09-07T03:30:32.313Z,8.68
2022-09-07T03:32:55.917Z,9.27
2022-09-07T03:35:19.754Z,9.43
2022-09-07T03:37:45.086Z,11.38
2022-09-07T03:40:12.126Z,11.85
2022-09-07T03:42:35.878Z,11.18
2022-09-07T03:44:59.652Z,11.13
2022-09-07T03:47:23.235Z,10.73
2022-09-07T03:49:49.003Z,11.15
2022-09-07T03:52:12.758Z,12.48
2022-09-07T03:54:39.620Z,12.00
2022-09-07T03:57:03.585Z,12.13
2022-09-07T03:59:27.458Z,11.48
2022-09-07T04:01:51.131Z,10.80
2022-09-07T04:04:15.066Z,10.40
2022-09-07T04:06:38.701Z,10.50
2022-09-07T04:09:05.151Z,10.68
2022-09-07T04:11:30.221Z,9.35
2022-09-07T04:13:53.965Z,9.00
2022-09-07T04:16:20.772Z,8.98
2022-09-07T04:18:44.815Z,8.65
2022-09-07T04:21:08.893Z,9.68
2022-09-07T04:23:32.455Z,9.35
2022-09-07T04:25:56.094Z,8.98
2022-09-07T04:28:22.512Z,8.60
2022-09-07T04:30:46.285Z,8.85
2022-09-07T04:33:09.899Z,7.97
2022-09-07T04:35:37.271Z,8.85
2022-09-07T04:38:00.841Z,8.32
2022-09-07T04:40:24.488Z,9.57
2022-09-07T04:42:48.534Z,9.75
2022-09-07T04:45:13.890Z,9.93
2022-09-07T04:47:37.421Z,9.68
2022-09-07T04:50:01.000Z,9.65
2022-09-07T04:52:24.730Z,10.05
2022-09-07T04:54:50.874Z,10.55
2022-09-07T04:57:14.525Z,11.13
2022-09-07T04:59:38.149Z,10.90
2022-09-07T05:02:03.319Z,10.95
2022-09-07T05:04:26.962Z,10.85
2022-09-07T05:06:50.596Z,11.30
2022-09-07T05:09:14.298Z,11.65
2022-09-07T05:11:38.547Z,10.70
2022-09-07T05:14:04.187Z,11.55
2022-09-07T05:16:29.041Z,12.20
2022-09-07T05:18:55.725Z,12.23
2022-09-07T05:21:22.820Z,12.18
2022-09-07T05:23:46.679Z,11.88
2022-09-07T05:26:11.764Z,12.02
2022-09-07T05:28:36.611Z,12.70
2022-09-07T05:36:27.008Z,12.27
2022-09-07T05:38:50.784Z,10.80
2022-09-07T05:41:16.035Z,11.27
2022-09-07T05:46:33.878Z,10.48
2022-09-07T05:48:57.472Z,11.50
2022-09-07T05:51:21.053Z,11.50
2022-09-07T05:53:48.793Z,11.25
2022-09-07T05:56:13.059Z,10.85
2022-09-07T05:58:37.781Z,11.25
2022-09-07T06:01:03.208Z,10.40
2022-09-07T06:03:27.130Z,9.95
2022-09-07T06:05:50.850Z,10.20
2022-09-07T06:08:14.457Z,10.50
2022-09-07T06:13:04.698Z,10.77
2022-09-07T06:15:28.448Z,9.63
2022-09-07T06:17:52.056Z,9.57
2022-09-07T06:20:16.155Z,9.98
2022-09-07T06:22:40.190Z,9.45
2022-09-07T06:25:03.998Z,10.07
2022-09-07T06:27:29.616Z,10.02
2022-09-07T06:29:53.283Z,9.82
2022-09-07T06:35:00.884Z,9.48
2022-09-07T06:37:24.464Z,9.18
2022-09-07T06:39:49.492Z,9.68
2022-09-07T06:42:13.481Z,9.27
2022-09-07T06:44:41.990Z,9.55
2022-09-07T06:47:05.712Z,9.05
2022-09-07T06:49:31.841Z,9.88
2022-09-07T06:51:55.668Z,9.65
2022-09-07T06:57:08.774Z,9.95
2022-09-07T06:59:33.019Z,10.30
2022-09-07T07:01:58.017Z,9.55
2022-09-07T07:04:22.052Z,9.57
2022-09-07T07:06:45.786Z,9.23
2022-09-07T07:09:13.963Z,9.35
2022-09-07T07:11:38.316Z,7.97
2022-09-07T07:14:02.007Z,8.68
2022-09-07T07:16:26.171Z,8.18
2022-09-07T07:18:52.443Z,7.70
2022-09-07T07:21:17.272Z,8.20
2022-09-07T07:23:41.384Z,7.78
2022-09-07T07:26:07.220Z,8.20
2022-09-07T07:31:15.576Z,7.07
2022-09-07T07:33:39.708Z,6.60
2022-09-07T07:36:15.921Z,6.90
2022-09-07T07:44:10.898Z,5.85
2022-09-07T07:46:34.456Z,6.38
2022-09-07T07:48:58.669Z,5.47
2022-09-07T07:51:24.000Z,6.28
2022-09-07T07:53:47.887Z,5.55
2022-09-07T07:56:12.880Z,5.05
2022-09-07T07:58:38.459Z,5.57
2022-09-07T08:01:05.052Z,5.20
2022-09-07T08:03:28.880Z,6.18
2022-09-07T08:05:52.673Z,6.65
2022-09-07T08:08:17.649Z,6.32
2022-09-07T08:10:41.366Z,5.55
2022-09-07T08:13:05.114Z,6.30
2022-09-07T08:15:28.731Z,5.70
2022-09-07T08:17:52.342Z,6.30
2022-09-07T08:20:16.211Z,5.10
2022-09-07T08:22:39.681Z,4.43
2022-09-07T08:25:06.228Z,4.25
2022-09-07T08:27:29.746Z,4.78
2022-09-07T08:29:53.543Z,4.55
2022-09-07T08:32:17.024Z,4.93
2022-09-07T08:34:40.577Z,5.10
2022-09-07T08:37:04.300Z,4.65
2022-09-07T08:39:28.064Z,4.85
2022-09-07T08:42:17.047Z,4.68
2022-09-07T08:44:45.763Z,4.63
2022-09-07T08:47:21.617Z,4.40
2022-09-07T08:49:50.940Z,4.53
2022-09-07T08:52:19.217Z,4.45
2022-09-07T08:54:48.567Z,4.68
2022-09-07T08:57:21.658Z,4.78
2022-09-07T08:59:52.867Z,4.80
2022-09-07T09:02:40.206Z,4.13
2022-09-07T09:05:18.867Z,4.50
2022-09-07T09:08:00.515Z,4.45
2022-09-07T09:10:34.676Z,4.30
2022-09-07T09:13:13.736Z,4.32
2022-09-07T09:15:53.323Z,4.70
2022-09-07T09:18:35.017Z,4.13
2022-09-07T09:21:00.663Z,4.10
2022-09-07T09:23:27.758Z,4.07
2022-09-07T09:25:55.453Z,3.88
2022-09-07T09:28:20.792Z,3.88
2022-09-07T09:30:44.467Z,4.35
2022-09-07T09:33:18.328Z,3.97
2022-09-07T09:35:43.042Z,3.83
2022-09-07T09:38:06.887Z,3.72
2022-09-07T09:40:34.017Z,3.92
2022-09-07T09:43:05.217Z,4.13
2022-09-07T09:48:21.767Z,4.20
2022-09-07T09:53:39.119Z,4.70
2022-09-07T09:56:04.909Z,4.82
2022-09-07T10:01:28.089Z,5.07
2022-09-07T10:06:20.740Z,5.18
2022-09-07T10:08:57.529Z,5.35
2022-09-07T10:14:29.269Z,5.10
2022-09-07T10:16:54.233Z,5.40
2022-09-07T10:19:32.920Z,5.32
2022-09-07T10:21:58.941Z,4.90
2022-09-07T10:24:26.994Z,5.80
2022-09-07T10:26:50.487Z,5.53
2022-09-07T10:29:17.416Z,5.18
2022-09-07T10:32:09.047Z,5.97
2022-09-07T10:34:45.417Z,6.03
2022-09-07T10:37:11.334Z,5.43
2022-09-07T10:39:38.022Z,5.45
2022-09-07T10:42:16.669Z,5.28
2022-09-07T10:44:55.684Z,6.60
2022-09-07T10:47:35.555Z,5.68
2022-09-07T10:52:59.056Z,6.78
2022-09-07T10:55:29.213Z,6.22
2022-09-07T10:58:06.855Z,5.70
2022-09-07T11:00:38.123Z,6.97
2022-09-07T11:03:25.316Z,6.78
2022-09-07T11:06:12.726Z,6.25
2022-09-07T11:09:18.050Z,6.40
2022-09-07T11:12:03.641Z,7.03
2022-09-07T11:14:31.073Z,6.72
2022-09-07T11:16:59.760Z,6.35
2022-09-07T11:19:36.176Z,6.25
2022-09-07T11:22:11.670Z,5.32
2022-09-07T11:24:42.782Z,6.07
2022-09-07T11:27:14.890Z,6.13
2022-09-07T11:29:45.943Z,5.80
2022-09-07T11:32:15.263Z,6.47
2022-09-07T11:34:45.156Z,6.35
2022-09-07T11:37:15.217Z,6.45
2022-09-07T11:39:45.783Z,7.15
2022-09-07T11:45:07.843Z,7.00
2022-09-07T11:47:39.525Z,6.68
2022-09-07T11:50:04.895Z,5.68
2022-09-07T11:52:38.339Z,5.90
2022-09-07T11:55:07.021Z,6.60
2022-09-07T11:57:59.347Z,6.43
2022-09-07T12:00:25.656Z,5.97
2022-09-07T12:03:31.468Z,5.47
2022-09-07T12:06:41.377Z,5.65
2022-09-07T12:09:18.316Z,5.35
2022-09-07T12:12:23.504Z,4.75
2022-09-07T12:15:02.713Z,4.20
2022-09-07T12:17:45.012Z,4.53
2022-09-07T12:20:20.638Z,3.75
2022-09-07T12:23:04.462Z,2.92
2022-09-07T12:25:30.128Z,3.55
2022-09-07T12:27:54.461Z,3.35
2022-09-07T12:31:00.209Z,3.75
2022-09-07T12:33:36.284Z,3.15
2022-09-07T12:36:01.729Z,2.65
2022-09-07T12:39:21.783Z,2.50
2022-09-07T12:44:38.201Z,2.10
2022-09-07T12:47:03.145Z,2.92
2022-09-07T12:50:12.923Z,2.45
2022-09-07T12:53:26.518Z,2.72
2022-09-07T12:56:24.456Z,2.10
2022-09-07T12:59:05.160Z,2.00
2022-09-07T13:01:45.254Z,1.85
2022-09-07T13:04:53.279Z,1.77
2022-09-07T13:07:42.567Z,2.10
2022-09-07T13:10:33.201Z,2.00
2022-09-07T13:13:05.709Z,2.10
2022-09-07T13:15:42.869Z,1.92
2022-09-07T13:18:10.511Z,2.20
2022-09-07T13:20:39.654Z,2.00
2022-09-07T13:23:26.090Z,2.03
2022-09-07T13:26:10.584Z,1.83
2022-09-07T13:28:42.433Z,1.70
2022-09-07T13:31:49.979Z,1.35
2022-09-07T13:34:44.781Z,1.77
2022-09-07T13:37:16.949Z,1.55
2022-09-07T13:39:45.295Z,1.52
2022-09-07T13:42:16.496Z,1.70
2022-09-07T13:44:43.176Z,1.52
2022-09-07T13:47:15.004Z,1.30
2022-09-07T13:49:55.158Z,1.27
2022-09-07T13:52:25.659Z,1.48
2022-09-07T13:55:05.276Z,1.52
2022-09-07T13:57:33.270Z,1.60
2022-09-07T13:59:59.191Z,2.20
2022-09-07T14:02:27.163Z,17.77
2022-09-07T14:04:54.892Z,1.50
2022-09-07T14:07:21.817Z,1.50
2022-09-07T14:09:45.459Z,3.05
2022-09-07T14:12:16.281Z,1.58
2022-09-07T14:14:39.804Z,1.50
2022-09-07T14:17:08.759Z,2.28
2022-09-07T14:19:41.296Z,1.67
2022-09-07T14:22:08.447Z,1.20
2022-09-07T14:24:38.078Z,1.10
2022-09-07T14:27:02.505Z,1.30
2022-09-07T14:29:30.057Z,1.17
2022-09-07T14:31:54.406Z,1.17
2022-09-07T14:34:23.195Z,1.23
2022-09-07T14:36:48.315Z,1.10
2022-09-07T14:39:14.509Z,1.40
2022-09-07T14:41:40.685Z,1.25
2022-09-07T14:44:04.485Z,1.20
2022-09-07T14:46:33.066Z,1.10
2022-09-07T14:48:59.391Z,1.30
2022-09-07T14:51:35.048Z,1.23
2022-09-07T14:54:04.066Z,1.00
2022-09-07T14:56:33.280Z,1.23
2022-09-07T14:58:56.932Z,1.15
2022-09-07T15:01:38.569Z,1.55
2022-09-07T15:04:02.990Z,1.30
2022-09-07T15:09:30.786Z,2.53
2022-09-07T15:12:06.571Z,2.13
2022-09-07T15:14:30.683Z,1.50
2022-09-07T15:19:44.467Z,1.60
2022-09-07T15:22:13.551Z,1.85
2022-09-07T15:24:37.274Z,1.30
2022-09-07T15:27:02.329Z,1.20
2022-09-07T15:29:29.169Z,1.50
2022-09-07T15:32:02.207Z,1.50
2022-09-07T15:34:27.431Z,1.50
2022-09-07T15:36:55.352Z,1.25
2022-09-07T15:39:23.132Z,1.42
2022-09-07T15:41:47.066Z,1.63
2022-09-07T15:44:10.653Z,1.33
2022-09-07T15:46:35.049Z,1.40
2022-09-07T15:49:01.744Z,1.52
2022-09-07T15:54:13.822Z,1.30
2022-09-07T15:56:39.509Z,1.40
2022-09-07T15:59:03.584Z,1.45
2022-09-07T16:04:16.011Z,1.27
2022-09-07T16:06:40.409Z,1.67
2022-09-07T16:09:06.214Z,1.30
2022-09-07T16:11:29.937Z,1.50
2022-09-07T16:14:01.819Z,1.30
2022-09-07T16:17:25.754Z,1.77
2022-09-07T16:19:14.394Z,1.30
2022-09-07T16:21:41.116Z,1.55
2022-09-07T16:24:05.340Z,1.40
2022-09-07T16:26:28.974Z,1.60
2022-09-07T16:28:54.249Z,1.35
2022-09-07T16:31:23.303Z,1.20
2022-09-07T16:33:47.491Z,1.60
2022-09-07T16:36:15.995Z,1.40
2022-09-07T16:38:47.422Z,1.30
2022-09-07T16:41:15.405Z,2.08
2022-09-07T16:43:39.001Z,1.58
2022-09-07T16:46:04.976Z,1.67
2022-09-07T16:48:32.440Z,1.65
2022-09-07T16:51:01.643Z,1.60
2022-09-07T16:53:25.820Z,1.88
2022-09-07T16:55:49.333Z,1.80
2022-09-07T17:00:56.691Z,1.80
2022-09-07T17:03:20.463Z,2.20
2022-09-07T17:05:45.491Z,2.05
2022-09-07T17:08:09.049Z,1.98
2022-09-07T17:10:32.689Z,2.30
2022-09-07T17:12:56.756Z,2.13
2022-09-07T17:15:20.256Z,1.98
2022-09-07T17:17:44.013Z,2.45
2022-09-07T17:20:09.485Z,2.20
2022-09-07T17:22:34.448Z,2.63
2022-09-07T17:24:58.110Z,2.33
2022-09-07T17:27:21.682Z,3.10
2022-09-07T17:29:45.302Z,2.38
2022-09-07T17:32:25.306Z,2.85
2022-09-07T17:34:49.544Z,2.15
2022-09-07T17:37:13.195Z,2.42
2022-09-07T17:39:39.001Z,2.40
2022-09-07T17:42:02.815Z,2.40
2022-09-07T17:44:30.745Z,2.33
2022-09-07T17:46:55.881Z,2.38
2022-09-07T17:49:20.078Z,2.30
2022-09-07T17:51:44.273Z,2.42
2022-09-07T17:54:10.833Z,2.15
2022-09-07T17:56:36.373Z,2.30
2022-09-07T18:01:43.792Z,2.25
2022-09-07T18:04:07.356Z,2.38
2022-09-07T18:07:27.002Z,2.33
2022-09-07T18:13:36.333Z,2.20
2022-09-07T18:16:01.051Z,2.63
2022-09-07T18:18:24.565Z,2.20
2022-09-07T18:20:48.466Z,2.17
2022-09-07T18:23:12.624Z,2.17
2022-09-07T18:25:37.231Z,2.85
2022-09-07T18:30:46.197Z,2.03
2022-09-07T18:33:09.977Z,2.88
2022-09-07T18:35:34.171Z,2.75
2022-09-07T18:37:57.900Z,2.55
2022-09-07T18:40:21.930Z,2.53
2022-09-07T18:42:46.346Z,2.45
2022-09-07T18:47:56.268Z,3.00
2022-09-07T18:50:20.582Z,3.13
2022-09-07T18:52:52.517Z,3.13
2022-09-07T18:55:17.455Z,2.60
2022-09-07T18:57:41.062Z,2.95
2022-09-07T19:00:05.869Z,3.08
2022-09-07T19:02:29.510Z,3.00
2022-09-07T19:07:38.810Z,2.90
2022-09-07T19:10:06.211Z,3.08
2022-09-07T19:12:29.935Z,3.00
2022-09-07T19:14:53.481Z,3.38
2022-09-07T19:17:17.906Z,3.80
2022-09-07T19:19:42.108Z,3.63
2022-09-07T19:22:07.152Z,3.20
2022-09-07T19:24:31.850Z,2.67
2022-09-07T19:27:00.045Z,2.80
2022-09-07T19:29:24.261Z,3.03
2022-09-07T19:32:04.146Z,3.20
2022-09-07T19:34:27.793Z,2.67
2022-09-07T19:36:51.345Z,2.97
2022-09-07T19:39:16.423Z,2.75
2022-09-07T19:41:45.028Z,3.25
2022-09-07T19:44:09.638Z,3.35
2022-09-07T19:46:33.223Z,2.90
2022-09-07T19:48:58.665Z,2.72
2022-09-07T19:51:22.396Z,2.90
2022-09-07T19:53:48.033Z,3.20
2022-09-07T19:56:15.758Z,3.25
2022-09-07T19:58:41.683Z,3.55
2022-09-07T20:01:11.223Z,3.03
2022-09-07T20:03:35.392Z,3.78
2022-09-07T20:05:59.042Z,3.60
2022-09-07T20:08:22.561Z,3.22
2022-09-07T20:10:46.097Z,3.65
2022-09-07T20:13:11.110Z,3.45
2022-09-07T20:15:34.733Z,2.95
2022-09-07T20:17:59.265Z,3.42
2022-09-07T20:20:23.477Z,3.78
2022-09-07T20:22:46.997Z,3.75
2022-09-07T20:25:13.279Z,3.30
2022-09-07T20:27:37.084Z,3.97
2022-09-07T20:30:02.136Z,3.25
2022-09-07T20:32:30.946Z,4.05
2022-09-07T20:34:54.632Z,4.07
2022-09-07T20:37:18.457Z,3.50
2022-09-07T20:39:42.083Z,3.75
2022-09-07T20:42:06.746Z,3.67
2022-09-07T20:44:30.334Z,3.45
2022-09-07T20:46:55.685Z,3.30
2022-09-07T20:49:19.397Z,3.55
2022-09-07T20:51:43.289Z,3.95
2022-09-07T20:54:07.102Z,3.75
2022-09-07T20:56:31.021Z,3.25
2022-09-07T20:58:57.779Z,3.45
2022-09-07T21:01:21.640Z,3.17
2022-09-07T21:03:49.523Z,3.70
2022-09-07T21:06:13.631Z,3.75
2022-09-07T21:08:39.284Z,3.67
2022-09-07T21:11:08.084Z,4.20
2022-09-07T21:13:31.586Z,3.53
2022-09-07T21:15:55.195Z,3.72
2022-09-07T21:18:19.677Z,3.80
2022-09-07T21:20:57.872Z,3.20
2022-09-07T21:23:28.829Z,3.38
2022-09-07T21:25:52.288Z,3.35
2022-09-07T21:28:15.946Z,3.75
2022-09-07T21:30:39.537Z,4.00
2022-09-07T21:33:03.342Z,3.72
2022-09-07T21:35:26.886Z,4.30
2022-09-07T21:37:51.717Z,3.45
2022-09-07T21:40:15.490Z,3.70
2022-09-07T21:42:39.298Z,3.92
2022-09-07T21:45:03.018Z,4.10
2022-09-07T21:47:26.533Z,3.42
2022-09-07T21:49:50.193Z,3.78
2022-09-07T21:52:13.830Z,3.70
2022-09-07T21:55:41.642Z,3.63
2022-09-07T21:58:38.611Z,3.38
2022-09-07T22:01:10.765Z,3.60
2022-09-07T22:03:34.615Z,4.43
2022-09-07T22:06:02.621Z,3.63
2022-09-07T22:08:26.215Z,3.90
2022-09-07T22:10:51.115Z,4.22
2022-09-07T22:13:14.669Z,4.60
2022-09-07T22:15:39.761Z,4.78
2022-09-07T22:18:03.291Z,4.28
2022-09-07T22:20:26.919Z,3.95
2022-09-07T22:22:50.355Z,3.58
2022-09-07T22:25:14.403Z,3.80
2022-09-07T22:27:39.542Z,3.70
2022-09-07T22:30:03.049Z,3.53
2022-09-07T22:32:26.589Z,3.53
2022-09-07T22:34:51.702Z,3.47
2022-09-07T22:37:15.181Z,3.50
2022-09-07T22:39:38.743Z,3.78
2022-09-07T22:42:02.305Z,4.13
2022-09-07T22:44:27.609Z,3.83
2022-09-07T22:46:51.200Z,3.35
2022-09-07T22:49:16.923Z,3.70
2022-09-07T22:51:40.798Z,3.30
2022-09-07T22:54:04.464Z,3.55
2022-09-07T22:56:31.308Z,3.03
2022-09-07T22:58:57.726Z,3.42
2022-09-07T23:01:23.216Z,3.35
2022-09-07T23:03:47.045Z,3.80
2022-09-07T23:06:22.587Z,3.78
2022-09-07T23:08:46.161Z,3.45
2022-09-07T23:11:10.291Z,3.70
2022-09-07T23:13:34.465Z,3.63
2022-09-07T23:15:58.173Z,3.53
2022-09-07T23:18:23.599Z,3.42
2022-09-07T23:20:47.691Z,3.92
2022-09-07T23:23:13.373Z,3.50
2022-09-07T23:25:38.089Z,3.33
2022-09-07T23:28:01.663Z,3.42
2022-09-07T23:30:25.368Z,4.03
2022-09-07T23:32:48.860Z,3.33
2022-09-07T23:35:16.510Z,3.20
2022-09-07T23:37:40.250Z,3.58
2022-09-07T23:40:04.774Z,3.40
2022-09-07T23:42:28.338Z,3.92
2022-09-07T23:44:51.963Z,3.60
2022-09-07T23:47:15.623Z,4.13
2022-09-07T23:49:39.262Z,4.03
2022-09-07T23:52:05.118Z,4.32
2022-09-07T23:54:28.720Z,4.35
2022-09-07T23:56:52.280Z,3.97
2022-09-07T23:59:16.054Z,4.25
